sensor_id;sensor_type;location;lat;lon;timestamp;P1;durP1;ratioP1;P2;durP2;ratioP2
9422;SDS011;65863;49.506;10.400;2024-01-27T00:02:26;6.43;;;2.10;;
9422;SDS011;65863;49.506;10.400;2024-01-27T00:05:10;4.80;;;1.83;;
9422;SDS011;65863;49.506;10.400;2024-01-27T00:07:54;6.53;;;2.00;;
9422;SDS011;65863;49.506;10.400;2024-01-27T00:10:38;8.83;;;2.30;;
9422;SDS011;65863;49.506;10.400;2024-01-27T00:13:22;4.23;;;2.13;;
9422;SDS011;65863;49.506;10.400;2024-01-27T00:16:06;5.40;;;2.27;;
9422;SDS011;65863;49.506;10.400;2024-01-27T00:18:52;5.07;;;1.90;;
9422;SDS011;65863;49.506;10.400;2024-01-27T00:21:36;5.40;;;2.23;;
9422;SDS011;65863;49.506;10.400;2024-01-27T00:24:20;4.17;;;1.77;;
9422;SDS011;65863;49.506;10.400;2024-01-27T00:27:04;8.20;;;2.00;;
9422;SDS011;65863;49.506;10.400;2024-01-27T00:29:47;6.70;;;2.37;;
9422;SDS011;65863;49.506;10.400;2024-01-27T00:32:32;7.20;;;2.53;;
9422;SDS011;65863;49.506;10.400;2024-01-27T00:35:17;11.80;;;2.50;;
9422;SDS011;65863;49.506;10.400;2024-01-27T00:38:01;8.30;;;2.17;;
9422;SDS011;65863;49.506;10.400;2024-01-27T00:40:45;6.43;;;2.30;;
9422;SDS011;65863;49.506;10.400;2024-01-27T00:43:29;4.40;;;2.00;;
9422;SDS011;65863;49.506;10.400;2024-01-27T00:46:13;6.60;;;2.43;;
9422;SDS011;65863;49.506;10.400;2024-01-27T00:48:57;9.27;;;2.10;;
9422;SDS011;65863;49.506;10.400;2024-01-27T00:51:41;7.93;;;2.80;;
9422;SDS011;65863;49.506;10.400;2024-01-27T00:54:25;9.37;;;2.97;;
9422;SDS011;65863;49.506;10.400;2024-01-27T00:57:09;6.60;;;2.33;;
9422;SDS011;65863;49.506;10.400;2024-01-27T01:08:26;5.57;;;2.30;;
9422;SDS011;65863;49.506;10.400;2024-01-27T01:11:10;8.70;;;2.50;;
9422;SDS011;65863;49.506;10.400;2024-01-27T01:13:54;7.73;;;2.27;;
9422;SDS011;65863;49.506;10.400;2024-01-27T01:16:38;10.10;;;2.87;;
9422;SDS011;65863;49.506;10.400;2024-01-27T01:19:22;5.87;;;2.73;;
9422;SDS011;65863;49.506;10.400;2024-01-27T01:22:07;5.30;;;2.33;;
9422;SDS011;65863;49.506;10.400;2024-01-27T01:24:51;8.43;;;2.80;;
9422;SDS011;65863;49.506;10.400;2024-01-27T01:27:35;7.67;;;2.73;;
9422;SDS011;65863;49.506;10.400;2024-01-27T01:30:19;8.97;;;3.23;;
9422;SDS011;65863;49.506;10.400;2024-01-27T01:33:03;9.33;;;2.40;;
9422;SDS011;65863;49.506;10.400;2024-01-27T01:35:47;8.43;;;3.40;;
9422;SDS011;65863;49.506;10.400;2024-01-27T01:38:32;3.97;;;2.40;;
9422;SDS011;65863;49.506;10.400;2024-01-27T01:41:16;7.03;;;2.50;;
9422;SDS011;65863;49.506;10.400;2024-01-27T01:44:00;4.13;;;2.43;;
9422;SDS011;65863;49.506;10.400;2024-01-27T01:46:47;8.03;;;2.63;;
9422;SDS011;65863;49.506;10.400;2024-01-27T01:49:31;6.37;;;2.57;;
9422;SDS011;65863;49.506;10.400;2024-01-27T01:52:16;8.33;;;2.80;;
9422;SDS011;65863;49.506;10.400;2024-01-27T01:55:03;9.10;;;2.60;;
9422;SDS011;65863;49.506;10.400;2024-01-27T01:57:48;6.73;;;3.27;;
9422;SDS011;65863;49.506;10.400;2024-01-27T02:00:33;9.30;;;3.80;;
9422;SDS011;65863;49.506;10.400;2024-01-27T02:03:17;3.57;;;2.33;;
9422;SDS011;65863;49.506;10.400;2024-01-27T02:06:01;7.63;;;3.10;;
9422;SDS011;65863;49.506;10.400;2024-01-27T02:08:45;8.27;;;3.27;;
9422;SDS011;65863;49.506;10.400;2024-01-27T02:11:29;8.27;;;2.80;;
9422;SDS011;65863;49.506;10.400;2024-01-27T02:14:13;9.40;;;3.10;;
9422;SDS011;65863;49.506;10.400;2024-01-27T02:16:57;9.53;;;3.40;;
9422;SDS011;65863;49.506;10.400;2024-01-27T02:19:41;8.13;;;3.10;;
9422;SDS011;65863;49.506;10.400;2024-01-27T02:26:25;6.57;;;3.70;;
9422;SDS011;65863;49.506;10.400;2024-01-27T02:29:09;7.83;;;2.80;;
9422;SDS011;65863;49.506;10.400;2024-01-27T02:31:53;9.53;;;3.10;;
9422;SDS011;65863;49.506;10.400;2024-01-27T02:34:38;4.93;;;3.07;;
9422;SDS011;65863;49.506;10.400;2024-01-27T02:37:22;8.67;;;3.37;;
9422;SDS011;65863;49.506;10.400;2024-01-27T02:40:07;6.70;;;3.57;;
9422;SDS011;65863;49.506;10.400;2024-01-27T02:42:53;6.77;;;3.57;;
9422;SDS011;65863;49.506;10.400;2024-01-27T02:45:37;6.60;;;3.50;;
9422;SDS011;65863;49.506;10.400;2024-01-27T02:48:21;10.30;;;3.73;;
9422;SDS011;65863;49.506;10.400;2024-01-27T02:51:05;8.53;;;3.67;;
9422;SDS011;65863;49.506;10.400;2024-01-27T02:53:49;9.10;;;3.50;;
9422;SDS011;65863;49.506;10.400;2024-01-27T02:56:33;8.67;;;3.73;;
9422;SDS011;65863;49.506;10.400;2024-01-27T02:59:17;8.10;;;3.80;;
9422;SDS011;65863;49.506;10.400;2024-01-27T03:02:01;6.63;;;4.00;;
9422;SDS011;65863;49.506;10.400;2024-01-27T03:04:45;7.07;;;3.50;;
9422;SDS011;65863;49.506;10.400;2024-01-27T03:07:29;11.13;;;3.93;;
9422;SDS011;65863;49.506;10.400;2024-01-27T03:10:13;10.93;;;4.87;;
9422;SDS011;65863;49.506;10.400;2024-01-27T03:12:57;8.77;;;4.20;;
9422;SDS011;65863;49.506;10.400;2024-01-27T03:15:41;9.07;;;3.80;;
9422;SDS011;65863;49.506;10.400;2024-01-27T03:18:27;8.43;;;4.07;;
9422;SDS011;65863;49.506;10.400;2024-01-27T03:21:11;6.20;;;3.87;;
9422;SDS011;65863;49.506;10.400;2024-01-27T03:23:55;9.27;;;4.00;;
9422;SDS011;65863;49.506;10.400;2024-01-27T03:26:38;7.47;;;3.40;;
9422;SDS011;65863;49.506;10.400;2024-01-27T03:29:23;6.60;;;3.70;;
9422;SDS011;65863;49.506;10.400;2024-01-27T03:32:07;5.60;;;3.70;;
9422;SDS011;65863;49.506;10.400;2024-01-27T03:34:51;8.70;;;3.37;;
9422;SDS011;65863;49.506;10.400;2024-01-27T03:37:35;8.43;;;3.43;;
9422;SDS011;65863;49.506;10.400;2024-01-27T03:40:19;10.70;;;3.50;;
9422;SDS011;65863;49.506;10.400;2024-01-27T03:43:03;4.37;;;2.90;;
9422;SDS011;65863;49.506;10.400;2024-01-27T03:45:47;8.30;;;4.07;;
9422;SDS011;65863;49.506;10.400;2024-01-27T03:48:30;8.00;;;3.87;;
9422;SDS011;65863;49.506;10.400;2024-01-27T03:51:14;7.40;;;3.60;;
9422;SDS011;65863;49.506;10.400;2024-01-27T03:53:58;5.23;;;3.53;;
9422;SDS011;65863;49.506;10.400;2024-01-27T03:56:42;7.33;;;3.50;;
9422;SDS011;65863;49.506;10.400;2024-01-27T03:59:26;8.20;;;3.93;;
9422;SDS011;65863;49.506;10.400;2024-01-27T04:02:10;7.87;;;3.93;;
9422;SDS011;65863;49.506;10.400;2024-01-27T04:04:54;7.60;;;3.53;;
9422;SDS011;65863;49.506;10.400;2024-01-27T04:07:38;8.27;;;4.37;;
9422;SDS011;65863;49.506;10.400;2024-01-27T04:10:23;9.77;;;3.53;;
9422;SDS011;65863;49.506;10.400;2024-01-27T04:13:07;9.07;;;4.10;;
9422;SDS011;65863;49.506;10.400;2024-01-27T04:15:51;8.47;;;3.70;;
9422;SDS011;65863;49.506;10.400;2024-01-27T04:18:38;4.60;;;3.17;;
9422;SDS011;65863;49.506;10.400;2024-01-27T04:21:23;8.10;;;3.80;;
9422;SDS011;65863;49.506;10.400;2024-01-27T04:24:07;13.33;;;3.80;;
9422;SDS011;65863;49.506;10.400;2024-01-27T04:26:50;7.33;;;3.87;;
9422;SDS011;65863;49.506;10.400;2024-01-27T04:29:35;5.83;;;3.37;;
9422;SDS011;65863;49.506;10.400;2024-01-27T04:32:20;5.63;;;3.63;;
9422;SDS011;65863;49.506;10.400;2024-01-27T04:35:08;9.93;;;3.60;;
9422;SDS011;65863;49.506;10.400;2024-01-27T04:37:53;9.10;;;3.80;;
9422;SDS011;65863;49.506;10.400;2024-01-27T04:40:37;6.53;;;3.70;;
9422;SDS011;65863;49.506;10.400;2024-01-27T04:43:21;8.73;;;3.43;;
9422;SDS011;65863;49.506;10.400;2024-01-27T04:46:05;7.60;;;4.00;;
9422;SDS011;65863;49.506;10.400;2024-01-27T04:48:49;9.87;;;4.00;;
9422;SDS011;65863;49.506;10.400;2024-01-27T04:51:33;6.63;;;3.60;;
9422;SDS011;65863;49.506;10.400;2024-01-27T04:54:17;8.70;;;3.80;;
9422;SDS011;65863;49.506;10.400;2024-01-27T04:57:01;10.80;;;4.70;;
9422;SDS011;65863;49.506;10.400;2024-01-27T04:59:48;8.63;;;4.00;;
9422;SDS011;65863;49.506;10.400;2024-01-27T05:02:32;11.23;;;4.40;;
9422;SDS011;65863;49.506;10.400;2024-01-27T05:05:16;9.43;;;4.33;;
9422;SDS011;65863;49.506;10.400;2024-01-27T05:08:00;10.40;;;4.10;;
9422;SDS011;65863;49.506;10.400;2024-01-27T05:10:44;12.83;;;4.33;;
9422;SDS011;65863;49.506;10.400;2024-01-27T05:13:29;8.40;;;3.87;;
9422;SDS011;65863;49.506;10.400;2024-01-27T05:16:12;12.30;;;4.20;;
9422;SDS011;65863;49.506;10.400;2024-01-27T05:18:57;6.73;;;4.13;;
9422;SDS011;65863;49.506;10.400;2024-01-27T05:21:40;8.47;;;3.87;;
9422;SDS011;65863;49.506;10.400;2024-01-27T05:24:24;8.00;;;3.77;;
9422;SDS011;65863;49.506;10.400;2024-01-27T05:27:08;6.53;;;3.53;;
9422;SDS011;65863;49.506;10.400;2024-01-27T05:29:52;7.60;;;4.13;;
9422;SDS011;65863;49.506;10.400;2024-01-27T05:32:36;12.23;;;3.70;;
9422;SDS011;65863;49.506;10.400;2024-01-27T05:35:21;8.40;;;4.03;;
9422;SDS011;65863;49.506;10.400;2024-01-27T05:38:05;8.73;;;3.93;;
9422;SDS011;65863;49.506;10.400;2024-01-27T05:40:48;7.00;;;3.10;;
9422;SDS011;65863;49.506;10.400;2024-01-27T05:43:34;8.07;;;4.03;;
9422;SDS011;65863;49.506;10.400;2024-01-27T05:46:18;9.57;;;3.60;;
9422;SDS011;65863;49.506;10.400;2024-01-27T05:49:02;7.77;;;3.30;;
9422;SDS011;65863;49.506;10.400;2024-01-27T05:51:47;8.13;;;3.30;;
9422;SDS011;65863;49.506;10.400;2024-01-27T05:54:31;8.03;;;3.50;;
9422;SDS011;65863;49.506;10.400;2024-01-27T05:57:16;9.83;;;3.50;;
9422;SDS011;65863;49.506;10.400;2024-01-27T06:00:00;8.10;;;3.40;;
9422;SDS011;65863;49.506;10.400;2024-01-27T06:02:44;12.20;;;4.20;;
9422;SDS011;65863;49.506;10.400;2024-01-27T06:05:27;9.93;;;3.27;;
9422;SDS011;65863;49.506;10.400;2024-01-27T06:08:12;7.80;;;4.60;;
9422;SDS011;65863;49.506;10.400;2024-01-27T06:10:56;9.57;;;3.50;;
9422;SDS011;65863;49.506;10.400;2024-01-27T06:13:40;19.50;;;3.40;;
9422;SDS011;65863;49.506;10.400;2024-01-27T06:16:24;8.80;;;3.60;;
9422;SDS011;65863;49.506;10.400;2024-01-27T06:19:08;12.30;;;3.43;;
9422;SDS011;65863;49.506;10.400;2024-01-27T06:21:53;6.73;;;3.20;;
9422;SDS011;65863;49.506;10.400;2024-01-27T06:24:41;11.60;;;4.13;;
9422;SDS011;65863;49.506;10.400;2024-01-27T06:27:26;7.80;;;4.13;;
9422;SDS011;65863;49.506;10.400;2024-01-27T06:30:10;19.37;;;4.27;;
9422;SDS011;65863;49.506;10.400;2024-01-27T06:32:54;7.40;;;3.73;;
9422;SDS011;65863;49.506;10.400;2024-01-27T06:35:38;7.27;;;3.17;;
9422;SDS011;65863;49.506;10.400;2024-01-27T06:38:22;12.93;;;3.77;;
9422;SDS011;65863;49.506;10.400;2024-01-27T06:41:06;7.83;;;4.00;;
9422;SDS011;65863;49.506;10.400;2024-01-27T06:43:50;9.30;;;4.10;;
9422;SDS011;65863;49.506;10.400;2024-01-27T06:46:34;8.63;;;3.70;;
9422;SDS011;65863;49.506;10.400;2024-01-27T06:49:18;8.93;;;3.63;;
9422;SDS011;65863;49.506;10.400;2024-01-27T06:52:03;6.77;;;3.90;;
9422;SDS011;65863;49.506;10.400;2024-01-27T06:54:47;7.53;;;3.63;;
9422;SDS011;65863;49.506;10.400;2024-01-27T06:57:31;9.60;;;3.50;;
9422;SDS011;65863;49.506;10.400;2024-01-27T07:00:16;11.10;;;3.47;;
9422;SDS011;65863;49.506;10.400;2024-01-27T07:03:00;8.07;;;3.40;;
9422;SDS011;65863;49.506;10.400;2024-01-27T07:05:47;10.13;;;3.60;;
9422;SDS011;65863;49.506;10.400;2024-01-27T07:08:31;14.20;;;4.17;;
9422;SDS011;65863;49.506;10.400;2024-01-27T07:11:16;10.17;;;3.40;;
9422;SDS011;65863;49.506;10.400;2024-01-27T07:14:00;4.80;;;3.20;;
9422;SDS011;65863;49.506;10.400;2024-01-27T07:16:44;8.83;;;3.30;;
9422;SDS011;65863;49.506;10.400;2024-01-27T07:19:28;8.87;;;3.50;;
9422;SDS011;65863;49.506;10.400;2024-01-27T07:22:12;6.43;;;2.80;;
9422;SDS011;65863;49.506;10.400;2024-01-27T07:24:55;10.83;;;3.80;;
9422;SDS011;65863;49.506;10.400;2024-01-27T07:27:40;10.70;;;3.37;;
9422;SDS011;65863;49.506;10.400;2024-01-27T07:30:24;8.33;;;3.80;;
9422;SDS011;65863;49.506;10.400;2024-01-27T07:33:08;6.27;;;3.50;;
9422;SDS011;65863;49.506;10.400;2024-01-27T07:35:52;10.23;;;3.60;;
9422;SDS011;65863;49.506;10.400;2024-01-27T07:38:36;12.43;;;4.23;;
9422;SDS011;65863;49.506;10.400;2024-01-27T07:41:19;11.47;;;3.33;;
9422;SDS011;65863;49.506;10.400;2024-01-27T07:44:10;13.77;;;4.03;;
9422;SDS011;65863;49.506;10.400;2024-01-27T07:46:55;14.20;;;3.83;;
9422;SDS011;65863;49.506;10.400;2024-01-27T07:49:39;10.10;;;3.80;;
9422;SDS011;65863;49.506;10.400;2024-01-27T07:52:23;11.50;;;3.50;;
9422;SDS011;65863;49.506;10.400;2024-01-27T07:55:07;12.60;;;3.90;;
9422;SDS011;65863;49.506;10.400;2024-01-27T07:57:52;7.27;;;3.73;;
9422;SDS011;65863;49.506;10.400;2024-01-27T08:00:36;5.20;;;3.13;;
9422;SDS011;65863;49.506;10.400;2024-01-27T08:03:20;7.97;;;3.60;;
9422;SDS011;65863;49.506;10.400;2024-01-27T08:06:04;12.87;;;3.53;;
9422;SDS011;65863;49.506;10.400;2024-01-27T08:08:49;12.30;;;3.60;;
9422;SDS011;65863;49.506;10.400;2024-01-27T08:11:33;8.13;;;3.53;;
9422;SDS011;65863;49.506;10.400;2024-01-27T08:14:17;8.43;;;3.70;;
9422;SDS011;65863;49.506;10.400;2024-01-27T08:17:01;9.03;;;3.33;;
9422;SDS011;65863;49.506;10.400;2024-01-27T08:19:47;8.03;;;4.27;;
9422;SDS011;65863;49.506;10.400;2024-01-27T08:22:31;7.00;;;3.80;;
9422;SDS011;65863;49.506;10.400;2024-01-27T08:25:15;14.77;;;3.80;;
9422;SDS011;65863;49.506;10.400;2024-01-27T08:28:00;9.63;;;3.97;;
9422;SDS011;65863;49.506;10.400;2024-01-27T08:30:46;7.43;;;3.27;;
9422;SDS011;65863;49.506;10.400;2024-01-27T08:33:30;5.60;;;3.20;;
9422;SDS011;65863;49.506;10.400;2024-01-27T08:36:14;9.83;;;4.23;;
9422;SDS011;65863;49.506;10.400;2024-01-27T08:38:58;10.13;;;3.47;;
9422;SDS011;65863;49.506;10.400;2024-01-27T08:41:43;7.80;;;3.60;;
9422;SDS011;65863;49.506;10.400;2024-01-27T08:44:27;12.50;;;3.70;;
9422;SDS011;65863;49.506;10.400;2024-01-27T08:47:11;8.03;;;3.93;;
9422;SDS011;65863;49.506;10.400;2024-01-27T08:49:55;7.93;;;4.10;;
9422;SDS011;65863;49.506;10.400;2024-01-27T08:52:39;14.57;;;3.87;;
9422;SDS011;65863;49.506;10.400;2024-01-27T08:55:23;10.17;;;3.53;;
9422;SDS011;65863;49.506;10.400;2024-01-27T08:58:07;7.43;;;3.97;;
9422;SDS011;65863;49.506;10.400;2024-01-27T09:00:51;9.10;;;3.60;;
9422;SDS011;65863;49.506;10.400;2024-01-27T09:03:36;7.50;;;4.23;;
9422;SDS011;65863;49.506;10.400;2024-01-27T09:06:20;8.57;;;3.83;;
9422;SDS011;65863;49.506;10.400;2024-01-27T09:09:04;13.27;;;4.70;;
9422;SDS011;65863;49.506;10.400;2024-01-27T09:11:48;11.50;;;4.20;;
9422;SDS011;65863;49.506;10.400;2024-01-27T09:14:33;11.57;;;4.23;;
9422;SDS011;65863;49.506;10.400;2024-01-27T09:17:17;10.13;;;4.50;;
9422;SDS011;65863;49.506;10.400;2024-01-27T09:20:01;14.10;;;4.23;;
9422;SDS011;65863;49.506;10.400;2024-01-27T09:22:46;10.43;;;4.43;;
9422;SDS011;65863;49.506;10.400;2024-01-27T09:25:31;9.57;;;3.70;;
9422;SDS011;65863;49.506;10.400;2024-01-27T09:28:15;7.77;;;3.90;;
9422;SDS011;65863;49.506;10.400;2024-01-27T09:30:59;9.97;;;4.07;;
9422;SDS011;65863;49.506;10.400;2024-01-27T09:33:43;9.17;;;3.63;;
9422;SDS011;65863;49.506;10.400;2024-01-27T09:36:27;10.83;;;3.40;;
9422;SDS011;65863;49.506;10.400;2024-01-27T09:39:11;9.60;;;4.90;;
9422;SDS011;65863;49.506;10.400;2024-01-27T09:41:55;11.37;;;3.67;;
9422;SDS011;65863;49.506;10.400;2024-01-27T09:44:43;17.83;;;4.47;;
9422;SDS011;65863;49.506;10.400;2024-01-27T09:47:31;14.70;;;4.23;;
9422;SDS011;65863;49.506;10.400;2024-01-27T09:50:15;13.10;;;3.57;;
9422;SDS011;65863;49.506;10.400;2024-01-27T09:53:01;9.13;;;3.87;;
9422;SDS011;65863;49.506;10.400;2024-01-27T09:55:45;16.40;;;3.83;;
9422;SDS011;65863;49.506;10.400;2024-01-27T09:58:30;7.30;;;3.10;;
9422;SDS011;65863;49.506;10.400;2024-01-27T10:01:14;7.83;;;3.30;;
9422;SDS011;65863;49.506;10.400;2024-01-27T10:04:01;10.30;;;3.60;;
9422;SDS011;65863;49.506;10.400;2024-01-27T10:06:47;7.77;;;3.20;;
9422;SDS011;65863;49.506;10.400;2024-01-27T10:09:32;5.03;;;3.00;;
9422;SDS011;65863;49.506;10.400;2024-01-27T10:12:16;8.83;;;3.63;;
9422;SDS011;65863;49.506;10.400;2024-01-27T10:15:01;5.43;;;3.23;;
9422;SDS011;65863;49.506;10.400;2024-01-27T10:17:46;12.10;;;4.30;;
9422;SDS011;65863;49.506;10.400;2024-01-27T10:20:30;10.93;;;3.97;;
9422;SDS011;65863;49.506;10.400;2024-01-27T10:23:14;9.13;;;4.30;;
9422;SDS011;65863;49.506;10.400;2024-01-27T10:25:58;11.13;;;3.60;;
9422;SDS011;65863;49.506;10.400;2024-01-27T10:28:42;8.87;;;3.80;;
9422;SDS011;65863;49.506;10.400;2024-01-27T10:31:26;10.27;;;3.57;;
9422;SDS011;65863;49.506;10.400;2024-01-27T10:34:11;7.87;;;3.33;;
9422;SDS011;65863;49.506;10.400;2024-01-27T10:36:58;10.13;;;4.00;;
9422;SDS011;65863;49.506;10.400;2024-01-27T10:39:42;6.73;;;3.43;;
9422;SDS011;65863;49.506;10.400;2024-01-27T10:42:28;14.37;;;3.67;;
9422;SDS011;65863;49.506;10.400;2024-01-27T10:45:16;8.60;;;3.80;;
9422;SDS011;65863;49.506;10.400;2024-01-27T10:48:02;11.70;;;3.73;;
9422;SDS011;65863;49.506;10.400;2024-01-27T10:50:47;9.53;;;2.97;;
9422;SDS011;65863;49.506;10.400;2024-01-27T10:53:33;8.13;;;3.20;;
9422;SDS011;65863;49.506;10.400;2024-01-27T10:56:19;7.40;;;3.43;;
9422;SDS011;65863;49.506;10.400;2024-01-27T10:59:03;11.17;;;3.23;;
9422;SDS011;65863;49.506;10.400;2024-01-27T11:01:49;9.07;;;3.17;;
9422;SDS011;65863;49.506;10.400;2024-01-27T11:04:36;8.53;;;3.10;;
9422;SDS011;65863;49.506;10.400;2024-01-27T11:07:23;7.87;;;2.73;;
9422;SDS011;65863;49.506;10.400;2024-01-27T11:10:07;10.60;;;3.13;;
9422;SDS011;65863;49.506;10.400;2024-01-27T11:12:52;9.27;;;2.97;;
9422;SDS011;65863;49.506;10.400;2024-01-27T11:15:39;7.47;;;3.07;;
9422;SDS011;65863;49.506;10.400;2024-01-27T11:18:23;9.53;;;2.57;;
9422;SDS011;65863;49.506;10.400;2024-01-27T11:21:12;9.13;;;3.00;;
9422;SDS011;65863;49.506;10.400;2024-01-27T11:23:58;8.53;;;2.83;;
9422;SDS011;65863;49.506;10.400;2024-01-27T11:26:42;10.27;;;3.43;;
9422;SDS011;65863;49.506;10.400;2024-01-27T11:29:26;9.17;;;2.93;;
9422;SDS011;65863;49.506;10.400;2024-01-27T11:32:11;6.83;;;2.50;;
9422;SDS011;65863;49.506;10.400;2024-01-27T11:34:57;7.13;;;2.90;;
9422;SDS011;65863;49.506;10.400;2024-01-27T11:37:44;11.87;;;2.73;;
9422;SDS011;65863;49.506;10.400;2024-01-27T11:40:28;12.13;;;2.20;;
9422;SDS011;65863;49.506;10.400;2024-01-27T11:43:13;8.43;;;2.37;;
9422;SDS011;65863;49.506;10.400;2024-01-27T11:46:00;8.23;;;1.90;;
9422;SDS011;65863;49.506;10.400;2024-01-27T11:48:45;7.60;;;2.13;;
9422;SDS011;65863;49.506;10.400;2024-01-27T11:51:29;9.53;;;2.20;;
9422;SDS011;65863;49.506;10.400;2024-01-27T11:54:13;8.00;;;2.97;;
9422;SDS011;65863;49.506;10.400;2024-01-27T11:56:57;5.87;;;2.33;;
9422;SDS011;65863;49.506;10.400;2024-01-27T11:59:41;5.50;;;1.80;;
9422;SDS011;65863;49.506;10.400;2024-01-27T12:02:25;7.17;;;2.27;;
9422;SDS011;65863;49.506;10.400;2024-01-27T12:05:09;9.30;;;2.47;;
9422;SDS011;65863;49.506;10.400;2024-01-27T12:07:53;9.37;;;2.27;;
9422;SDS011;65863;49.506;10.400;2024-01-27T12:10:38;4.93;;;2.20;;
9422;SDS011;65863;49.506;10.400;2024-01-27T12:13:22;5.60;;;2.13;;
9422;SDS011;65863;49.506;10.400;2024-01-27T12:16:07;7.80;;;2.10;;
9422;SDS011;65863;49.506;10.400;2024-01-27T12:18:52;4.93;;;1.83;;
9422;SDS011;65863;49.506;10.400;2024-01-27T12:21:38;7.30;;;2.13;;
9422;SDS011;65863;49.506;10.400;2024-01-27T12:24:23;8.00;;;2.30;;
9422;SDS011;65863;49.506;10.400;2024-01-27T12:27:08;7.57;;;2.73;;
9422;SDS011;65863;49.506;10.400;2024-01-27T12:29:51;6.43;;;1.90;;
9422;SDS011;65863;49.506;10.400;2024-01-27T12:32:36;7.47;;;2.23;;
9422;SDS011;65863;49.506;10.400;2024-01-27T12:35:20;6.47;;;2.23;;
9422;SDS011;65863;49.506;10.400;2024-01-27T12:38:05;8.97;;;2.47;;
9422;SDS011;65863;49.506;10.400;2024-01-27T12:40:50;7.80;;;2.37;;
9422;SDS011;65863;49.506;10.400;2024-01-27T12:43:33;6.97;;;2.13;;
9422;SDS011;65863;49.506;10.400;2024-01-27T12:46:17;6.57;;;2.10;;
9422;SDS011;65863;49.506;10.400;2024-01-27T12:49:02;6.73;;;2.53;;
9422;SDS011;65863;49.506;10.400;2024-01-27T12:51:46;9.37;;;2.40;;
9422;SDS011;65863;49.506;10.400;2024-01-27T12:54:32;4.83;;;1.90;;
9422;SDS011;65863;49.506;10.400;2024-01-27T12:57:17;7.70;;;2.30;;
9422;SDS011;65863;49.506;10.400;2024-01-27T13:00:02;3.83;;;1.90;;
9422;SDS011;65863;49.506;10.400;2024-01-27T13:02:53;6.80;;;2.43;;
9422;SDS011;65863;49.506;10.400;2024-01-27T13:05:37;6.83;;;2.00;;
9422;SDS011;65863;49.506;10.400;2024-01-27T13:08:22;7.50;;;2.30;;
9422;SDS011;65863;49.506;10.400;2024-01-27T13:11:06;8.23;;;2.70;;
9422;SDS011;65863;49.506;10.400;2024-01-27T13:13:50;7.97;;;2.20;;
9422;SDS011;65863;49.506;10.400;2024-01-27T13:16:34;7.70;;;2.60;;
9422;SDS011;65863;49.506;10.400;2024-01-27T13:19:18;11.17;;;2.30;;
9422;SDS011;65863;49.506;10.400;2024-01-27T13:22:02;5.93;;;2.17;;
9422;SDS011;65863;49.506;10.400;2024-01-27T13:24:47;8.60;;;2.93;;
9422;SDS011;65863;49.506;10.400;2024-01-27T13:27:31;6.90;;;2.03;;
9422;SDS011;65863;49.506;10.400;2024-01-27T13:30:17;7.33;;;2.10;;
9422;SDS011;65863;49.506;10.400;2024-01-27T13:33:01;7.73;;;2.00;;
9422;SDS011;65863;49.506;10.400;2024-01-27T13:35:46;8.77;;;2.67;;
9422;SDS011;65863;49.506;10.400;2024-01-27T13:38:30;8.67;;;2.53;;
9422;SDS011;65863;49.506;10.400;2024-01-27T13:41:14;6.43;;;2.33;;
9422;SDS011;65863;49.506;10.400;2024-01-27T13:43:59;6.53;;;2.07;;
9422;SDS011;65863;49.506;10.400;2024-01-27T13:46:43;5.30;;;2.30;;
9422;SDS011;65863;49.506;10.400;2024-01-27T13:49:27;5.67;;;1.80;;
9422;SDS011;65863;49.506;10.400;2024-01-27T13:52:11;5.73;;;2.30;;
9422;SDS011;65863;49.506;10.400;2024-01-27T13:54:55;6.07;;;1.97;;
9422;SDS011;65863;49.506;10.400;2024-01-27T13:57:40;7.03;;;1.97;;
9422;SDS011;65863;49.506;10.400;2024-01-27T14:00:24;14.37;;;2.93;;
9422;SDS011;65863;49.506;10.400;2024-01-27T14:03:08;8.97;;;2.23;;
9422;SDS011;65863;49.506;10.400;2024-01-27T14:05:53;7.80;;;2.40;;
9422;SDS011;65863;49.506;10.400;2024-01-27T14:08:37;10.53;;;2.77;;
9422;SDS011;65863;49.506;10.400;2024-01-27T14:11:24;4.13;;;1.73;;
9422;SDS011;65863;49.506;10.400;2024-01-27T14:14:08;9.90;;;2.37;;
9422;SDS011;65863;49.506;10.400;2024-01-27T14:16:52;10.17;;;2.30;;
9422;SDS011;65863;49.506;10.400;2024-01-27T14:19:38;8.20;;;2.47;;
9422;SDS011;65863;49.506;10.400;2024-01-27T14:22:22;12.53;;;2.30;;
9422;SDS011;65863;49.506;10.400;2024-01-27T14:25:06;8.77;;;1.93;;
9422;SDS011;65863;49.506;10.400;2024-01-27T14:27:52;5.90;;;1.77;;
9422;SDS011;65863;49.506;10.400;2024-01-27T14:30:36;10.83;;;2.37;;
9422;SDS011;65863;49.506;10.400;2024-01-27T14:33:21;5.90;;;2.13;;
9422;SDS011;65863;49.506;10.400;2024-01-27T14:36:06;7.43;;;2.30;;
9422;SDS011;65863;49.506;10.400;2024-01-27T14:38:51;8.93;;;2.87;;
9422;SDS011;65863;49.506;10.400;2024-01-27T14:41:38;4.57;;;2.00;;
9422;SDS011;65863;49.506;10.400;2024-01-27T14:44:22;8.67;;;2.97;;
9422;SDS011;65863;49.506;10.400;2024-01-27T14:47:06;8.37;;;2.37;;
9422;SDS011;65863;49.506;10.400;2024-01-27T14:49:52;8.87;;;2.10;;
9422;SDS011;65863;49.506;10.400;2024-01-27T14:52:36;4.70;;;2.13;;
9422;SDS011;65863;49.506;10.400;2024-01-27T14:55:21;5.03;;;2.00;;
9422;SDS011;65863;49.506;10.400;2024-01-27T14:58:05;9.07;;;2.70;;
9422;SDS011;65863;49.506;10.400;2024-01-27T15:00:49;7.43;;;2.17;;
9422;SDS011;65863;49.506;10.400;2024-01-27T15:03:36;6.27;;;1.80;;
9422;SDS011;65863;49.506;10.400;2024-01-27T15:06:20;7.33;;;2.20;;
9422;SDS011;65863;49.506;10.400;2024-01-27T15:09:05;11.37;;;2.23;;
9422;SDS011;65863;49.506;10.400;2024-01-27T15:11:49;5.97;;;2.20;;
9422;SDS011;65863;49.506;10.400;2024-01-27T15:14:34;7.10;;;2.37;;
9422;SDS011;65863;49.506;10.400;2024-01-27T15:17:18;9.03;;;2.30;;
9422;SDS011;65863;49.506;10.400;2024-01-27T15:20:03;5.70;;;1.87;;
9422;SDS011;65863;49.506;10.400;2024-01-27T15:22:47;6.37;;;2.17;;
9422;SDS011;65863;49.506;10.400;2024-01-27T15:25:31;8.70;;;2.93;;
9422;SDS011;65863;49.506;10.400;2024-01-27T15:28:15;7.77;;;2.53;;
9422;SDS011;65863;49.506;10.400;2024-01-27T15:30:59;4.83;;;1.63;;
9422;SDS011;65863;49.506;10.400;2024-01-27T15:33:44;8.73;;;2.33;;
9422;SDS011;65863;49.506;10.400;2024-01-27T15:36:28;7.83;;;2.00;;
9422;SDS011;65863;49.506;10.400;2024-01-27T15:39:12;12.10;;;2.47;;
9422;SDS011;65863;49.506;10.400;2024-01-27T15:41:57;6.00;;;1.80;;
9422;SDS011;65863;49.506;10.400;2024-01-27T15:44:45;8.10;;;2.50;;
9422;SDS011;65863;49.506;10.400;2024-01-27T15:47:29;8.10;;;2.30;;
9422;SDS011;65863;49.506;10.400;2024-01-27T15:50:13;9.53;;;2.20;;
9422;SDS011;65863;49.506;10.400;2024-01-27T15:53:00;10.90;;;2.17;;
9422;SDS011;65863;49.506;10.400;2024-01-27T15:55:44;7.17;;;2.03;;
9422;SDS011;65863;49.506;10.400;2024-01-27T15:58:28;11.93;;;2.57;;
9422;SDS011;65863;49.506;10.400;2024-01-27T16:01:12;9.03;;;2.13;;
9422;SDS011;65863;49.506;10.400;2024-01-27T16:03:56;8.97;;;2.43;;
9422;SDS011;65863;49.506;10.400;2024-01-27T16:06:40;9.47;;;3.07;;
9422;SDS011;65863;49.506;10.400;2024-01-27T16:09:24;10.68;;;2.80;;
9422;SDS011;65863;49.506;10.400;2024-01-27T16:12:07;6.17;;;2.37;;
9422;SDS011;65863;49.506;10.400;2024-01-27T16:14:51;10.10;;;3.10;;
9422;SDS011;65863;49.506;10.400;2024-01-27T16:17:36;6.77;;;2.67;;
9422;SDS011;65863;49.506;10.400;2024-01-27T16:20:19;8.53;;;2.73;;
9422;SDS011;65863;49.506;10.400;2024-01-27T16:23:03;7.13;;;2.33;;
9422;SDS011;65863;49.506;10.400;2024-01-27T16:25:49;9.27;;;2.33;;
9422;SDS011;65863;49.506;10.400;2024-01-27T16:28:33;9.40;;;2.20;;
9422;SDS011;65863;49.506;10.400;2024-01-27T16:31:20;11.27;;;2.67;;
9422;SDS011;65863;49.506;10.400;2024-01-27T16:34:05;12.13;;;4.37;;
9422;SDS011;65863;49.506;10.400;2024-01-27T16:36:49;8.77;;;3.40;;
9422;SDS011;65863;49.506;10.400;2024-01-27T16:39:33;10.87;;;3.40;;
9422;SDS011;65863;49.506;10.400;2024-01-27T16:42:17;9.43;;;3.10;;